Elgin, IL

6:31 AM CDT on September 05, 2015 (GMT -0500)
CamptonHillsWeather.com Central Kane County | | Change Station
CLOSE
Current Station
Personal Weather Station
Location: St Charles, IL
Elevation: 915 ft
Nearby Weather Stations

Elev 915 ft 41.96 °N, 88.42 °W | Updated 7 seconds ago

Mostly Cloudy
Mostly Cloudy
67.4 °F
Feels Like 67.4 °F
N
0.0
Wind Variable Wind from SSE
Gusts 0.0 mph

Today
High -- | Low -- °F
--% Chance of Precip.
Yesterday
High -- | Low -- °F
Precip. -- in
6:22 AM 7:20 PM
Waning Gibbous, 49% visible
Pressure 30.05 in
Visibility 7.0 miles
Clouds Few 11000 ft
Dew Point 66 °F
Humidity 97%
Rainfall 0.00 in
Snow Depth Not available.
UV 0 out of 12
Pollen 4.20 out of 12
Air Quality Not available.
Flu Activity Not available.
METAR KDPA 051052Z 00000KT 7SM FEW110 21/19 A3007 RMK AO2 LTG DSNT SE SLP175 T02060189
Pressure 30.05 in
Visibility 7.0 miles
Clouds Few 11000 ft
Dew Point 66 °F
Humidity 97%
Rainfall 0.00 in
Snow Depth Not available.
UV 0 out of 12
Pollen 4.20 out of 12
Air Quality Not available.
Flu Activity Not available.
METAR KDPA 051052Z 00000KT 7SM FEW110 21/19 A3007 RMK AO2 LTG DSNT SE SLP175 T02060189

10-Day Weather Forecast

×

Almanac

Astronomy

Sep. 05, 2015 Rise Set
Actual Time
Civil Twilight
Nautical Twilight
Astronomical Twilight
Moon
Length of Visible Light
Length of Day
Tomorrow will be .
, % of the Moon is Illuminated

Today's Extremes

State Highs State Lows

Community

WunderPhotos

Upload Photos

1,852,449 photos uploaded!

WunderBlogs® & News

Nearby

Air Quality

  Air Quality AQ Index Pollutant
Not available.

Snow Depth

Station Depth Elevation

Earthquake Activity

City Distance Mag. Time & Date
Minimum magnitude displayed is 2.5.

Coastal Water Temperatures

Place Temperature

Stations

Nearby Weather Stations

Station Location Temp. Windchill Dew Point Humidity Wind Precip. Elev Updated Type